Time;durP1;ratioP1;P1;durP2;ratioP2;P2;SDS_P1;SDS_P2;PMS_P1;PMS_P2;Temp;Humidity;BMP_temperature;BMP_pressure;BME280_temperature;BME280_humidity;BME280_pressure;Samples;Min_cycle;Max_cycle;Signal;HPM_P1;HPM_P2
2022/05/26 00:01:36;;;;;;;;;;;13.10;99.90;;;;;;6247174;23;20278;-74
2022/05/26 00:04:01;;;;;;;;;;;12.80;99.90;;;;;;6246833;23;19920;-73
2022/05/26 00:06:27;;;;;;;;;;;12.90;99.90;;;;;;6247216;23;19998;-73
2022/05/26 00:08:53;;;;;;;;;;;12.80;99.90;;;;;;6246489;23;20353;-73
2022/05/26 00:11:23;;;;;;;;;;;12.80;99.90;;;;;;6246688;23;19919;-74
2022/05/26 00:13:49;;;;;;;;;;;12.80;99.90;;;;;;6220085;23;20329;-73
2022/05/26 00:16:14;;;;;;;;;;;12.80;99.90;;;;;;6247038;23;19950;-73
2022/05/26 00:18:40;;;;;;;;;;;12.80;99.90;;;;;;6246330;23;19977;-73
2022/05/26 00:27:04;;;;;;;;;;;12.70;99.90;;;;;;6226934;22;19920;-72
2022/05/26 00:29:31;;;;;;;;;;;12.70;99.90;;;;;;6197202;23;19970;-73
2022/05/26 00:31:57;;;;;;;;;;;12.70;99.90;;;;;;6229321;23;19927;-73
2022/05/26 00:34:24;;;;;;;;;;;12.70;99.90;;;;;;6229955;23;20404;-73
2022/05/26 00:36:52;;;;;;;;;;;12.80;99.90;;;;;;6227005;23;19919;-74
2022/05/26 00:39:19;;;;;;;;;;;12.80;99.90;;;;;;6220811;23;19935;-73
2022/05/26 00:41:52;;;;;;;;;;;12.80;99.90;;;;;;6218495;23;20376;-69
2022/05/26 00:44:18;;;;;;;;;;;12.80;99.90;;;;;;6217414;23;19923;-74
2022/05/26 00:46:46;;;;;;;;;;;12.80;99.90;;;;;;6216472;23;19920;-73
2022/05/26 00:49:30;;;;;;;;;;;13.40;99.90;;;;;;6216791;23;19963;-73
2022/05/26 00:51:55;;;;;;;;;;;12.80;99.90;;;;;;6216179;23;20242;-74
2022/05/26 00:54:22;;;;;;;;;;;12.90;99.90;;;;;;6216210;23;19920;-72
2022/05/26 00:57:06;;;;;;;;;;;12.90;99.90;;;;;;6215547;23;19973;-74
2022/05/26 00:59:31;;;;;;;;;;;12.90;99.90;;;;;;6214372;23;19920;-74
2022/05/26 01:01:58;;;;;;;;;;;13.00;99.90;;;;;;6216248;23;19943;-73
2022/05/26 01:04:26;;;;;;;;;;;12.90;99.90;;;;;;6216555;23;19920;-73
2022/05/26 01:06:58;;;;;;;;;;;12.90;99.90;;;;;;6216077;23;19920;-74
2022/05/26 01:09:23;;;;;;;;;;;12.90;99.90;;;;;;6216014;23;19924;-74
2022/05/26 01:11:49;;;;;;;;;;;12.90;99.90;;;;;;6213896;23;19946;-74
2022/05/26 01:14:23;;;;;;;;;;;12.90;99.90;;;;;;6216321;23;20234;-73
2022/05/26 01:17:00;;;;;;;;;;;12.90;99.90;;;;;;6214244;23;19923;-74
2022/05/26 01:19:28;;;;;;;;;;;12.90;99.90;;;;;;6215844;23;19920;-74
2022/05/26 01:22:20;;;;;;;;;;;12.90;99.90;;;;;;6216231;23;20296;-73
2022/05/26 01:25:12;;;;;;;;;;;12.80;99.90;;;;;;6210126;23;19955;-72
2022/05/26 01:27:40;;;;;;;;;;;12.80;99.90;;;;;;6213923;23;19977;-74
2022/05/26 01:30:32;;;;;;;;;;;12.80;99.90;;;;;;6213910;23;19920;-73
2022/05/26 01:33:07;;;;;;;;;;;12.80;99.90;;;;;;6216115;23;19927;-75
2022/05/26 01:35:52;;;;;;;;;;;12.80;99.90;;;;;;6215404;23;19923;-76
2022/05/26 01:38:30;;;;;;;;;;;12.80;99.90;;;;;;6239531;23;19939;-71
2022/05/26 01:41:31;;;;;;;;;;;12.80;99.90;;;;;;6215886;23;19959;-72
2022/05/26 01:44:15;;;;;;;;;;;12.90;99.90;;;;;;6093829;23;19964;-74
2022/05/26 01:46:42;;;;;;;;;;;12.80;99.90;;;;;;6094724;23;19926;-72
2022/05/26 01:49:23;;;;;;;;;;;12.90;99.90;;;;;;6094729;23;20336;-72
2022/05/26 01:51:58;;;;;;;;;;;12.80;99.90;;;;;;6094284;23;19927;-72
2022/05/26 01:54:38;;;;;;;;;;;12.90;99.90;;;;;;6094493;23;19921;-73
2022/05/26 01:57:12;;;;;;;;;;;12.90;99.90;;;;;;6094650;23;19928;-73
2022/05/26 01:59:39;;;;;;;;;;;12.90;99.90;;;;;;6069727;23;19921;-73
2022/05/26 02:02:07;;;;;;;;;;;12.90;99.90;;;;;;6094446;23;19921;-73
2022/05/26 02:04:34;;;;;;;;;;;12.90;99.90;;;;;;6070249;23;19928;-73
2022/05/26 02:07:05;;;;;;;;;;;12.80;99.90;;;;;;6070396;23;19996;-73
2022/05/26 02:09:38;;;;;;;;;;;12.80;99.90;;;;;;6070458;23;19925;-72
2022/05/26 02:12:07;;;;;;;;;;;12.80;99.90;;;;;;6094691;23;19921;-73
2022/05/26 02:14:34;;;;;;;;;;;12.70;99.90;;;;;;6110390;23;19952;-73
2022/05/26 02:17:12;;;;;;;;;;;12.80;99.90;;;;;;6138177;23;19960;-72
2022/05/26 02:19:59;;;;;;;;;;;12.70;99.90;;;;;;6216397;23;19931;-73
2022/05/26 02:22:31;;;;;;;;;;;12.70;99.90;;;;;;6216275;23;19948;-74
2022/05/26 02:25:05;;;;;;;;;;;12.70;99.90;;;;;;6215835;23;19924;-75
2022/05/26 02:27:32;;;;;;;;;;;12.70;99.90;;;;;;6215587;23;19991;-76
2022/05/26 02:30:00;;;;;;;;;;;12.70;99.90;;;;;;6215742;23;20023;-75
2022/05/26 02:32:29;;;;;;;;;;;12.70;99.90;;;;;;6214647;23;19920;-74
2022/05/26 02:34:57;;;;;;;;;;;12.80;99.90;;;;;;6215740;23;19982;-74
2022/05/26 02:37:23;;;;;;;;;;;12.80;99.90;;;;;;6215753;23;20110;-72
2022/05/26 02:39:49;;;;;;;;;;;12.80;99.90;;;;;;6213982;23;19920;-74
2022/05/26 02:42:14;;;;;;;;;;;12.80;99.90;;;;;;6216944;23;19931;-73
2022/05/26 02:44:41;;;;;;;;;;;12.80;99.90;;;;;;6215909;23;19924;-73
2022/05/26 02:47:06;;;;;;;;;;;13.10;99.90;;;;;;6217046;23;19948;-74
2022/05/26 02:49:41;;;;;;;;;;;12.90;99.90;;;;;;6217504;23;20231;-74
2022/05/26 02:52:25;;;;;;;;;;;12.90;99.90;;;;;;6215829;23;19967;-74
2022/05/26 02:54:59;;;;;;;;;;;12.90;99.90;;;;;;6217370;23;19951;-72
2022/05/26 02:57:27;;;;;;;;;;;12.90;99.90;;;;;;6217436;23;19920;-74
2022/05/26 02:59:56;;;;;;;;;;;12.90;99.90;;;;;;6217163;23;19920;-73
2022/05/26 03:02:25;;;;;;;;;;;13.00;99.90;;;;;;6215304;23;19920;-74
2022/05/26 03:04:53;;;;;;;;;;;13.00;99.90;;;;;;6214546;23;19924;-74
2022/05/26 03:07:22;;;;;;;;;;;13.00;99.90;;;;;;6217506;23;19926;-71
2022/05/26 03:09:47;;;;;;;;;;;13.00;99.90;;;;;;6217410;23;19927;-73
2022/05/26 03:12:28;;;;;;;;;;;12.90;99.90;;;;;;6217268;23;19920;-73
2022/05/26 03:14:54;;;;;;;;;;;13.00;99.90;;;;;;6217190;23;19926;-74
2022/05/26 03:17:20;;;;;;;;;;;13.00;99.90;;;;;;6217492;23;19963;-73
2022/05/26 03:19:46;;;;;;;;;;;12.90;99.90;;;;;;6216723;23;20299;-72
2022/05/26 03:22:12;;;;;;;;;;;13.00;99.90;;;;;;6215352;23;19919;-72
2022/05/26 03:24:37;;;;;;;;;;;13.00;99.90;;;;;;6217312;23;19962;-72
2022/05/26 03:27:03;;;;;;;;;;;12.90;99.90;;;;;;6216756;23;19920;-73
2022/05/26 03:29:29;;;;;;;;;;;12.90;99.90;;;;;;6217189;23;19927;-73
2022/05/26 03:31:57;;;;;;;;;;;12.90;99.90;;;;;;6215251;23;19920;-73
2022/05/26 03:42:38;;;;;;;;;;;12.80;99.90;;;;;;6217043;23;20301;-73
2022/05/26 03:45:05;;;;;;;;;;;12.80;99.90;;;;;;6216693;23;19916;-73
2022/05/26 03:47:30;;;;;;;;;;;12.80;99.90;;;;;;6220411;23;19923;-72
2022/05/26 03:49:56;;;;;;;;;;;13.00;99.90;;;;;;6217961;23;19927;-72
2022/05/26 03:52:22;;;;;;;;;;;12.80;99.90;;;;;;6214860;23;20003;-72
2022/05/26 03:54:47;;;;;;;;;;;13.10;99.90;;;;;;6216856;23;19928;-73
2022/05/26 03:57:13;;;;;;;;;;;12.80;99.90;;;;;;6215244;23;20293;-73
2022/05/26 03:59:42;;;;;;;;;;;12.80;99.90;;;;;;6215398;23;20257;-72
2022/05/26 04:02:07;;;;;;;;;;;12.80;99.90;;;;;;6216371;23;19967;-74
2022/05/26 04:04:33;;;;;;;;;;;12.80;99.90;;;;;;6243154;23;19935;-73
2022/05/26 04:06:58;;;;;;;;;;;12.90;99.90;;;;;;6242921;23;19908;-73
2022/05/26 04:09:24;;;;;;;;;;;12.90;99.90;;;;;;6217372;23;19924;-73
2022/05/26 04:11:49;;;;;;;;;;;12.90;99.90;;;;;;6215236;23;19924;-73
2022/05/26 04:14:15;;;;;;;;;;;12.90;99.90;;;;;;6216909;23;20293;-72
2022/05/26 04:16:42;;;;;;;;;;;12.90;99.90;;;;;;6240202;23;20263;-73
2022/05/26 04:19:07;;;;;;;;;;;13.00;99.90;;;;;;6214866;23;20406;-72
2022/05/26 04:21:33;;;;;;;;;;;12.90;99.90;;;;;;6189152;23;19951;-74
2022/05/26 04:23:59;;;;;;;;;;;12.90;99.90;;;;;;6216448;23;19935;-72
2022/05/26 04:26:24;;;;;;;;;;;12.90;99.90;;;;;;6216216;23;19920;-72
2022/05/26 04:28:50;;;;;;;;;;;12.90;99.90;;;;;;6214857;23;19927;-74
2022/05/26 04:31:16;;;;;;;;;;;12.90;99.90;;;;;;6216748;23;19920;-74
2022/05/26 04:33:41;;;;;;;;;;;12.90;99.90;;;;;;6214905;23;19927;-73
2022/05/26 04:36:07;;;;;;;;;;;12.90;99.90;;;;;;6216578;23;19948;-73
2022/05/26 04:38:32;;;;;;;;;;;13.00;99.90;;;;;;6215894;23;19920;-73
2022/05/26 04:40:59;;;;;;;;;;;13.00;99.90;;;;;;6215971;23;19920;-73
2022/05/26 04:43:25;;;;;;;;;;;12.90;99.90;;;;;;6214650;23;20049;-73
2022/05/26 04:45:50;;;;;;;;;;;12.90;99.90;;;;;;6216455;23;19967;-73
2022/05/26 04:48:17;;;;;;;;;;;13.00;99.90;;;;;;6214851;23;20338;-73
2022/05/26 04:50:43;;;;;;;;;;;12.90;99.90;;;;;;6214563;23;19920;-74
2022/05/26 04:53:08;;;;;;;;;;;12.90;99.90;;;;;;6213676;23;19995;-73
2022/05/26 04:55:34;;;;;;;;;;;12.90;99.90;;;;;;6216271;23;19920;-73
2022/05/26 04:57:59;;;;;;;;;;;12.90;99.90;;;;;;6216096;23;19924;-73
2022/05/26 05:00:25;;;;;;;;;;;12.90;99.90;;;;;;6216390;23;19919;-73
2022/05/26 05:02:51;;;;;;;;;;;12.90;99.90;;;;;;6216259;23;20349;-74
2022/05/26 05:05:16;;;;;;;;;;;12.90;99.90;;;;;;6216169;23;19927;-73
2022/05/26 05:07:42;;;;;;;;;;;12.90;99.90;;;;;;6216137;23;19920;-73
2022/05/26 05:10:08;;;;;;;;;;;12.90;99.90;;;;;;6215720;23;19924;-73
2022/05/26 05:12:33;;;;;;;;;;;12.90;99.90;;;;;;6216141;23;20015;-73
2022/05/26 05:15:00;;;;;;;;;;;12.90;99.90;;;;;;6215773;23;19920;-72
2022/05/26 05:17:26;;;;;;;;;;;13.00;99.90;;;;;;6214255;23;19992;-74
2022/05/26 05:19:51;;;;;;;;;;;13.00;99.90;;;;;;6216036;23;19986;-73
2022/05/26 05:22:29;;;;;;;;;;;13.00;99.90;;;;;;6215597;23;19920;-70
2022/05/26 05:24:58;;;;;;;;;;;13.00;99.90;;;;;;6215648;23;19927;-73
2022/05/26 05:27:29;;;;;;;;;;;13.10;99.90;;;;;;6215570;23;19920;-73
2022/05/26 05:29:56;;;;;;;;;;;13.10;99.90;;;;;;6215850;23;20404;-70
2022/05/26 05:32:24;;;;;;;;;;;13.10;99.90;;;;;;6214239;23;20253;-72
2022/05/26 05:34:52;;;;;;;;;;;13.10;99.90;;;;;;6213665;23;19924;-71
2022/05/26 05:37:17;;;;;;;;;;;13.10;99.90;;;;;;6216329;23;19920;-72
2022/05/26 05:39:43;;;;;;;;;;;13.30;99.90;;;;;;6215998;23;19970;-72
2022/05/26 05:42:08;;;;;;;;;;;13.30;99.90;;;;;;6213616;23;20338;-72
2022/05/26 05:44:34;;;;;;;;;;;13.30;99.90;;;;;;6214394;23;19920;-72
2022/05/26 05:47:01;;;;;;;;;;;13.30;99.90;;;;;;6214144;23;19924;-70
2022/05/26 05:49:36;;;;;;;;;;;13.40;99.90;;;;;;6216058;23;19994;-70
2022/05/26 05:52:06;;;;;;;;;;;13.40;99.90;;;;;;6238004;23;19935;-70
2022/05/26 05:54:32;;;;;;;;;;;13.40;99.90;;;;;;6240229;23;19947;-70
2022/05/26 05:56:57;;;;;;;;;;;13.40;99.90;;;;;;6224000;23;20368;-71
2022/05/26 05:59:23;;;;;;;;;;;13.40;99.90;;;;;;6215473;23;19920;-71
2022/05/26 06:01:49;;;;;;;;;;;13.50;99.90;;;;;;6217298;23;19942;-71
2022/05/26 06:04:15;;;;;;;;;;;13.60;99.90;;;;;;6215579;23;19923;-72
2022/05/26 06:06:42;;;;;;;;;;;13.60;99.90;;;;;;6215904;23;19923;-72
2022/05/26 06:09:08;;;;;;;;;;;13.70;99.90;;;;;;6216110;23;19920;-73
2022/05/26 06:11:34;;;;;;;;;;;14.20;99.90;;;;;;6215749;23;19920;-71
2022/05/26 06:14:00;;;;;;;;;;;13.80;99.90;;;;;;6215834;23;19923;-70
2022/05/26 06:16:27;;;;;;;;;;;13.80;99.90;;;;;;6214655;23;20002;-71
2022/05/26 06:18:56;;;;;;;;;;;13.90;99.90;;;;;;6215542;23;19991;-72
2022/05/26 06:21:22;;;;;;;;;;;13.90;99.90;;;;;;6213740;23;19919;-73
2022/05/26 06:23:48;;;;;;;;;;;14.20;99.90;;;;;;6215780;23;19920;-72
2022/05/26 06:26:13;;;;;;;;;;;13.90;99.90;;;;;;6215093;23;19919;-74
2022/05/26 06:31:23;;;;;;;;;;;14.00;99.90;;;;;;6215186;23;19978;-73
2022/05/26 06:37:13;;;;;;;;;;;14.10;99.90;;;;;;6215420;23;19920;-72
2022/05/26 06:39:25;;;;;;;;;;;14.10;99.90;;;;;;6215186;23;19986;-73
2022/05/26 06:42:06;;;;;;;;;;;14.20;99.90;;;;;;6215160;23;19920;-74
2022/05/26 06:44:39;;;;;;;;;;;14.30;99.90;;;;;;6212859;23;19924;-73
2022/05/26 06:47:06;;;;;;;;;;;14.40;99.90;;;;;;6215480;23;20297;-72
2022/05/26 06:49:32;;;;;;;;;;;14.40;99.90;;;;;;6188064;23;19927;-73
2022/05/26 06:51:58;;;;;;;;;;;14.90;99.90;;;;;;6215356;23;19920;-73
2022/05/26 06:54:23;;;;;;;;;;;14.60;99.90;;;;;;6215356;23;20318;-73
2022/05/26 06:56:49;;;;;;;;;;;14.70;99.90;;;;;;6215393;23;20013;-73
2022/05/26 06:59:14;;;;;;;;;;;14.80;99.90;;;;;;6214483;23;20243;-73
2022/05/26 07:01:40;;;;;;;;;;;15.10;99.90;;;;;;6213450;23;19923;-72
2022/05/26 07:04:06;;;;;;;;;;;15.20;99.90;;;;;;6215491;23;20302;-73
2022/05/26 07:06:31;;;;;;;;;;;15.50;99.90;;;;;;6213021;23;19920;-73
2022/05/26 07:08:57;;;;;;;;;;;15.70;99.90;;;;;;6215320;23;20271;-73
2022/05/26 07:11:22;;;;;;;;;;;15.90;99.90;;;;;;6213293;23;19920;-73
2022/05/26 07:13:48;;;;;;;;;;;16.20;99.90;;;;;;6213316;23;19920;-72
2022/05/26 07:16:14;;;;;;;;;;;16.50;99.90;;;;;;6214925;23;19927;-73
2022/05/26 07:18:40;;;;;;;;;;;16.60;99.90;;;;;;6215439;23;19927;-73
2022/05/26 07:21:06;;;;;;;;;;;16.60;99.90;;;;;;6215304;23;19920;-75
2022/05/26 07:23:32;;;;;;;;;;;16.50;99.90;;;;;;6214926;23;20353;-73
2022/05/26 07:25:58;;;;;;;;;;;16.40;99.90;;;;;;6215210;23;19919;-74
2022/05/26 07:28:23;;;;;;;;;;;16.30;99.90;;;;;;6216399;23;19959;-72
2022/05/26 07:30:49;;;;;;;;;;;16.30;99.90;;;;;;6215001;23;19924;-73
2022/05/26 07:33:15;;;;;;;;;;;16.20;99.90;;;;;;6217040;23;19971;-74
2022/05/26 07:35:41;;;;;;;;;;;16.30;99.90;;;;;;6215494;23;19923;-72
2022/05/26 07:43:36;;;;;;;;;;;16.80;99.90;;;;;;6222636;23;20246;-74
2022/05/26 07:46:02;;;;;;;;;;;16.90;99.90;;;;;;6217363;23;19920;-72
2022/05/26 07:48:27;;;;;;;;;;;17.00;99.90;;;;;;6216399;23;20334;-73
2022/05/26 07:50:53;;;;;;;;;;;17.00;99.90;;;;;;6215450;23;19920;-68
2022/05/26 07:53:18;;;;;;;;;;;17.10;99.90;;;;;;6217051;23;19944;-71
2022/05/26 07:55:44;;;;;;;;;;;17.00;99.90;;;;;;6216430;23;19920;-71
2022/05/26 07:58:10;;;;;;;;;;;16.80;99.90;;;;;;6217261;23;19928;-72
2022/05/26 08:00:36;;;;;;;;;;;16.60;99.90;;;;;;6215278;23;19927;-74
2022/05/26 08:03:05;;;;;;;;;;;16.50;99.90;;;;;;6214520;23;19920;-80
2022/05/26 08:05:31;;;;;;;;;;;16.40;99.90;;;;;;6215823;23;19927;-72
2022/05/26 08:07:57;;;;;;;;;;;16.40;99.90;;;;;;6214382;23;19927;-70
2022/05/26 08:10:22;;;;;;;;;;;16.50;99.90;;;;;;6216942;23;19982;-70
2022/05/26 08:12:48;;;;;;;;;;;16.70;99.90;;;;;;6217112;23;20277;-70
2022/05/26 08:15:13;;;;;;;;;;;16.90;99.90;;;;;;6216999;23;19920;-68
2022/05/26 08:17:39;;;;;;;;;;;17.10;99.90;;;;;;6216757;23;20284;-72
2022/05/26 08:20:05;;;;;;;;;;;17.10;99.90;;;;;;6216210;23;19970;-71
2022/05/26 08:22:30;;;;;;;;;;;17.10;99.90;;;;;;6216637;23;19924;-73
2022/05/26 08:24:57;;;;;;;;;;;17.10;99.90;;;;;;6216363;23;19958;-71
2022/05/26 08:27:23;;;;;;;;;;;17.30;99.90;;;;;;6216303;23;19974;-72
2022/05/26 08:29:49;;;;;;;;;;;17.50;99.90;;;;;;6216547;23;20404;-69
2022/05/26 08:32:15;;;;;;;;;;;17.90;99.90;;;;;;6216630;23;19931;-71
2022/05/26 08:34:41;;;;;;;;;;;18.00;99.90;;;;;;6216000;23;19920;-70
2022/05/26 08:37:11;;;;;;;;;;;18.10;99.90;;;;;;6216365;23;19916;-70
2022/05/26 08:39:37;;;;;;;;;;;18.00;99.90;;;;;;6214075;23;19994;-70
2022/05/26 08:42:02;;;;;;;;;;;17.80;99.90;;;;;;6216971;23;19990;-72
2022/05/26 08:44:30;;;;;;;;;;;17.80;99.90;;;;;;6214342;23;19927;-70
2022/05/26 08:47:03;;;;;;;;;;;17.90;99.90;;;;;;6216549;23;19920;-72
2022/05/26 08:49:44;;;;;;;;;;;18.00;99.90;;;;;;6213057;23;20250;-77
2022/05/26 08:52:16;;;;;;;;;;;17.80;99.90;;;;;;6187653;23;19927;-71
2022/05/26 08:55:03;;;;;;;;;;;17.90;99.90;;;;;;6188015;23;19924;-74
2022/05/26 08:57:52;;;;;;;;;;;17.80;99.90;;;;;;6189191;23;19920;-78
2022/05/26 09:00:25;;;;;;;;;;;17.80;99.90;;;;;;6237619;23;19920;-75
2022/05/26 09:02:54;;;;;;;;;;;18.00;99.90;;;;;;6213821;23;19926;-75
2022/05/26 09:05:22;;;;;;;;;;;18.00;99.90;;;;;;6238458;23;19920;-75
2022/05/26 09:13:41;;;;;;;;;;;17.90;99.90;;;;;;6214937;23;19974;-71
2022/05/26 09:16:08;;;;;;;;;;;17.90;99.90;;;;;;6214254;23;20298;-71
2022/05/26 09:18:35;;;;;;;;;;;18.00;99.90;;;;;;6214149;23;19955;-70
2022/05/26 09:21:19;;;;;;;;;;;18.10;99.90;;;;;;6214523;23;20338;-70
2022/05/26 09:23:47;;;;;;;;;;;18.30;99.90;;;;;;6215748;23;20305;-71
2022/05/26 09:26:15;;;;;;;;;;;18.40;99.90;;;;;;6229623;23;20289;-71
2022/05/26 09:28:44;;;;;;;;;;;18.40;99.90;;;;;;6224193;23;19955;-71
2022/05/26 09:31:21;;;;;;;;;;;18.60;99.90;;;;;;6212154;23;19967;-71
2022/05/26 09:34:08;;;;;;;;;;;18.60;99.90;;;;;;6217037;23;19930;-67
2022/05/26 09:36:52;;;;;;;;;;;18.70;99.90;;;;;;6090873;23;19946;-70
2022/05/26 09:39:20;;;;;;;;;;;18.70;99.90;;;;;;6066767;23;19969;-72
2022/05/26 09:41:48;;;;;;;;;;;18.80;99.90;;;;;;6065454;23;19922;-72
2022/05/26 09:44:19;;;;;;;;;;;18.90;99.90;;;;;;6092231;23;20351;-69
2022/05/26 09:46:47;;;;;;;;;;;18.80;99.90;;;;;;6089997;23;20023;-71
2022/05/26 09:49:13;;;;;;;;;;;18.60;99.90;;;;;;6089201;23;19917;-71
2022/05/26 09:51:43;;;;;;;;;;;18.50;99.90;;;;;;6089897;23;20084;-70
2022/05/26 09:54:28;;;;;;;;;;;18.60;99.90;;;;;;6090441;23;19947;-74
2022/05/26 09:56:54;;;;;;;;;;;19.00;99.90;;;;;;6091797;23;19922;-73
2022/05/26 09:59:24;;;;;;;;;;;19.20;99.90;;;;;;6088204;23;20763;-73
2022/05/26 10:01:52;;;;;;;;;;;19.40;99.90;;;;;;6090802;23;19925;-74
2022/05/26 10:04:18;;;;;;;;;;;19.70;99.90;;;;;;6090176;23;19921;-73
2022/05/26 10:06:48;;;;;;;;;;;19.70;99.90;;;;;;6091154;23;19964;-75
2022/05/26 10:09:26;;;;;;;;;;;19.60;99.90;;;;;;6065188;23;19925;-73
2022/05/26 10:12:06;;;;;;;;;;;19.70;99.90;;;;;;6090065;23;19921;-75
2022/05/26 10:14:38;;;;;;;;;;;19.50;99.90;;;;;;6194809;23;20257;-74
2022/05/26 10:17:16;;;;;;;;;;;19.30;99.90;;;;;;6208684;23;20027;-76
2022/05/26 10:19:42;;;;;;;;;;;19.10;99.90;;;;;;6210997;23;19920;-73
2022/05/26 10:22:27;;;;;;;;;;;18.90;99.90;;;;;;6210312;23;20418;-74
2022/05/26 10:25:13;;;;;;;;;;;18.70;99.90;;;;;;6212062;23;19927;-77
2022/05/26 10:27:39;;;;;;;;;;;18.70;99.90;;;;;;6211604;23;20356;-74
2022/05/26 10:30:40;;;;;;;;;;;18.60;99.90;;;;;;6210401;23;19920;-74
2022/05/26 10:33:38;;;;;;;;;;;18.50;99.90;;;;;;6089868;23;20259;-76
2022/05/26 10:36:04;;;;;;;;;;;18.30;99.90;;;;;;6062660;23;19921;-78
2022/05/26 10:38:48;;;;;;;;;;;18.30;99.90;;;;;;6062113;23;19988;-81
2022/05/26 10:41:32;;;;;;;;;;;18.30;99.90;;;;;;6036188;23;19917;-77
2022/05/26 10:44:13;;;;;;;;;;;18.30;99.90;;;;;;6064438;23;19922;-81
2022/05/26 10:46:43;;;;;;;;;;;18.40;99.90;;;;;;6062933;23;20241;-79
2022/05/26 10:49:12;;;;;;;;;;;18.40;99.90;;;;;;6036817;23;20143;-73
2022/05/26 10:51:40;;;;;;;;;;;18.40;99.90;;;;;;6062728;23;19970;-78
2022/05/26 10:54:09;;;;;;;;;;;18.50;99.90;;;;;;6037509;23;20450;-77
2022/05/26 10:56:43;;;;;;;;;;;18.80;99.90;;;;;;6062034;23;19918;-79
2022/05/26 10:59:20;;;;;;;;;;;19.00;99.90;;;;;;6060329;23;19922;-75
2022/05/26 11:01:48;;;;;;;;;;;19.30;99.90;;;;;;6038354;23;20029;-73
2022/05/26 11:04:26;;;;;;;;;;;19.30;99.90;;;;;;6063072;23;20407;-74
2022/05/26 11:06:54;;;;;;;;;;;19.00;99.90;;;;;;6087425;23;19921;-70
2022/05/26 11:09:24;;;;;;;;;;;18.80;99.90;;;;;;6119762;23;19925;-75
2022/05/26 11:11:52;;;;;;;;;;;18.80;99.90;;;;;;6157804;23;19953;-73
2022/05/26 11:17:23;;;;;;;;;;;19.30;99.90;;;;;;6211419;23;19928;-73
2022/05/26 11:20:07;;;;;;;;;;;19.50;99.90;;;;;;6213033;23;19916;-72
2022/05/26 11:22:33;;;;;;;;;;;19.70;99.90;;;;;;6215552;23;20010;-72
2022/05/26 11:24:59;;;;;;;;;;;19.70;99.90;;;;;;6214082;23;19958;-71
2022/05/26 11:27:43;;;;;;;;;;;19.50;99.90;;;;;;6214868;23;19923;-72
2022/05/26 11:36:07;;;;;;;;;;;19.20;99.90;;;;;;6209528;23;20352;-73
2022/05/26 11:38:35;;;;;;;;;;;19.00;99.90;;;;;;6210760;23;19920;-73
2022/05/26 11:41:05;;;;;;;;;;;18.70;99.90;;;;;;6215057;23;19924;-71
2022/05/26 11:43:35;;;;;;;;;;;18.40;99.90;;;;;;6212267;23;20361;-72
2022/05/26 11:46:01;;;;;;;;;;;18.10;99.90;;;;;;6215104;23;19966;-73
2022/05/26 11:48:32;;;;;;;;;;;18.30;99.90;;;;;;6212846;23;20326;-73
2022/05/26 11:50:58;;;;;;;;;;;18.80;99.90;;;;;;6214195;23;20003;-74
2022/05/26 11:53:30;;;;;;;;;;;18.80;99.90;;;;;;6214194;23;19947;-76
2022/05/26 11:56:03;;;;;;;;;;;18.50;99.90;;;;;;6212965;23;20399;-74
2022/05/26 11:58:55;;;;;;;;;;;18.20;99.90;;;;;;6184638;23;19920;-72
2022/05/26 12:01:24;;;;;;;;;;;17.90;99.90;;;;;;6209955;23;19919;-75
2022/05/26 12:03:49;;;;;;;;;;;17.70;99.90;;;;;;6213113;23;19990;-75
2022/05/26 12:06:16;;;;;;;;;;;17.60;99.90;;;;;;6212434;23;20287;-74
2022/05/26 12:08:56;;;;;;;;;;;17.60;99.90;;;;;;6212921;23;20301;-75
2022/05/26 12:11:50;;;;;;;;;;;17.80;99.90;;;;;;6211550;23;19920;-76
2022/05/26 12:14:28;;;;;;;;;;;18.00;99.90;;;;;;6213932;23;19919;-77
2022/05/26 12:17:13;;;;;;;;;;;18.00;99.90;;;;;;6186985;23;19919;-75
2022/05/26 12:19:42;;;;;;;;;;;18.10;99.90;;;;;;6212621;23;19923;-78
2022/05/26 12:22:12;;;;;;;;;;;18.00;99.90;;;;;;6212674;23;19916;-76
2022/05/26 12:24:38;;;;;;;;;;;18.00;99.90;;;;;;6209384;23;20325;-76
2022/05/26 12:27:04;;;;;;;;;;;18.10;99.90;;;;;;6214038;23;19966;-76
2022/05/26 12:29:56;;;;;;;;;;;18.30;99.90;;;;;;6210652;23;19970;-78
2022/05/26 12:32:24;;;;;;;;;;;18.70;99.90;;;;;;6206366;23;20002;-81
2022/05/26 12:35:13;;;;;;;;;;;18.60;99.90;;;;;;6211442;23;19924;-78
2022/05/26 12:37:56;;;;;;;;;;;18.50;99.90;;;;;;6216082;23;19924;-79
2022/05/26 12:40:24;;;;;;;;;;;18.40;99.90;;;;;;6209200;23;19927;-76
2022/05/26 12:42:54;;;;;;;;;;;18.40;99.90;;;;;;6212072;23;19924;-76
2022/05/26 12:45:20;;;;;;;;;;;18.80;99.90;;;;;;6211287;23;19966;-78
2022/05/26 12:47:55;;;;;;;;;;;18.90;99.90;;;;;;6211311;23;19950;-76
2022/05/26 12:50:22;;;;;;;;;;;19.00;99.90;;;;;;6208103;23;19920;-74
2022/05/26 12:52:57;;;;;;;;;;;19.00;99.90;;;;;;6212659;23;20238;-76
2022/05/26 12:55:31;;;;;;;;;;;18.90;99.90;;;;;;6211295;23;19938;-76
2022/05/26 12:58:01;;;;;;;;;;;18.70;99.90;;;;;;6210382;23;19920;-74
2022/05/26 13:00:29;;;;;;;;;;;18.40;99.90;;;;;;6208974;23;20338;-76
2022/05/26 13:02:57;;;;;;;;;;;18.10;99.90;;;;;;6211098;23;19924;-77
2022/05/26 13:05:23;;;;;;;;;;;18.00;99.90;;;;;;6211691;23;19966;-74
2022/05/26 13:07:54;;;;;;;;;;;18.00;99.90;;;;;;6211705;23;19923;-73
2022/05/26 13:10:23;;;;;;;;;;;18.00;99.90;;;;;;6210796;23;20023;-76
2022/05/26 13:12:49;;;;;;;;;;;18.00;99.90;;;;;;6213460;23;19920;-74
2022/05/26 13:15:20;;;;;;;;;;;18.00;99.90;;;;;;6212971;23;19934;-74
2022/05/26 13:17:48;;;;;;;;;;;18.00;99.90;;;;;;6210011;23;19920;-74
2022/05/26 13:20:22;;;;;;;;;;;18.00;99.90;;;;;;6208883;23;19919;-74
2022/05/26 13:22:47;;;;;;;;;;;18.00;99.90;;;;;;6213039;23;20675;-74
2022/05/26 13:25:15;;;;;;;;;;;18.10;99.90;;;;;;6212099;23;19955;-75
2022/05/26 13:27:40;;;;;;;;;;;17.90;99.90;;;;;;6213212;23;19924;-74
2022/05/26 13:33:08;;;;;;;;;;;18.00;99.90;;;;;;6213619;23;19920;-75
2022/05/26 13:35:46;;;;;;;;;;;18.00;99.90;;;;;;6213662;23;20588;-72
2022/05/26 13:38:19;;;;;;;;;;;17.90;99.90;;;;;;6212968;23;19978;-72
2022/05/26 13:40:45;;;;;;;;;;;17.80;99.90;;;;;;6212304;23;19975;-75
2022/05/26 13:43:12;;;;;;;;;;;17.80;99.90;;;;;;6214245;23;19994;-74
2022/05/26 13:45:38;;;;;;;;;;;17.80;99.90;;;;;;6213266;23;20397;-73
2022/05/26 13:48:22;;;;;;;;;;;17.80;99.90;;;;;;6212592;23;20034;-74
2022/05/26 13:50:53;;;;;;;;;;;17.90;99.90;;;;;;6213246;23;19924;-74
2022/05/26 13:53:19;;;;;;;;;;;17.90;99.90;;;;;;6213834;23;19943;-74
2022/05/26 13:55:46;;;;;;;;;;;17.80;99.90;;;;;;6211450;23;19931;-74
2022/05/26 13:58:13;;;;;;;;;;;17.70;99.90;;;;;;6212750;23;19955;-77
2022/05/26 14:00:39;;;;;;;;;;;17.70;99.90;;;;;;6211743;23;19920;-73
2022/05/26 14:03:24;;;;;;;;;;;17.70;99.90;;;;;;6211161;23;19967;-74
2022/05/26 14:06:00;;;;;;;;;;;17.70;99.90;;;;;;6211623;23;19954;-77
2022/05/26 14:08:26;;;;;;;;;;;17.80;99.90;;;;;;6214911;23;19920;-77
2022/05/26 14:10:53;;;;;;;;;;;17.80;99.90;;;;;;6215687;23;20001;-76
2022/05/26 14:13:18;;;;;;;;;;;17.90;99.90;;;;;;6213658;23;19966;-76
2022/05/26 14:15:43;;;;;;;;;;;18.10;99.90;;;;;;6213094;23;19916;-74
2022/05/26 14:18:26;;;;;;;;;;;18.20;99.90;;;;;;6210303;23;20270;-80
2022/05/26 14:21:00;;;;;;;;;;;18.30;99.90;;;;;;6211048;23;20400;-79
2022/05/26 14:23:27;;;;;;;;;;;18.30;99.90;;;;;;6212825;23;19959;-81
2022/05/26 14:26:02;;;;;;;;;;;18.20;99.90;;;;;;6188857;23;19916;-81
2022/05/26 14:28:33;;;;;;;;;;;18.10;99.90;;;;;;6215451;23;19971;-81
2022/05/26 14:30:58;;;;;;;;;;;18.00;99.90;;;;;;6213618;23;19974;-86
2022/05/26 14:33:25;;;;;;;;;;;18.00;99.90;;;;;;6216580;23;19920;-82
2022/05/26 14:35:51;;;;;;;;;;;18.10;99.90;;;;;;6218346;23;19938;-87
2022/05/26 14:38:17;;;;;;;;;;;18.10;99.90;;;;;;6213484;23;19987;-89
2022/05/26 14:40:43;;;;;;;;;;;18.00;99.90;;;;;;6240611;23;20369;-81
2022/05/26 14:43:09;;;;;;;;;;;18.00;99.90;;;;;;6211850;23;19915;-79
2022/05/26 14:45:35;;;;;;;;;;;18.00;99.90;;;;;;6213133;23;19982;-80
2022/05/26 14:48:03;;;;;;;;;;;18.10;99.90;;;;;;6213446;23;20599;-76
2022/05/26 14:50:29;;;;;;;;;;;18.10;99.90;;;;;;6212288;23;20301;-77
2022/05/26 14:52:57;;;;;;;;;;;18.10;99.90;;;;;;6211692;23;19920;-73
2022/05/26 14:55:27;;;;;;;;;;;18.00;99.90;;;;;;6188188;23;20345;-74
2022/05/26 14:57:54;;;;;;;;;;;17.90;99.90;;;;;;6214565;23;19955;-74
2022/05/26 15:00:21;;;;;;;;;;;17.90;99.90;;;;;;6215154;23;20264;-74
2022/05/26 15:02:47;;;;;;;;;;;17.80;99.90;;;;;;6215421;23;20231;-77
2022/05/26 15:05:13;;;;;;;;;;;17.80;99.90;;;;;;6213130;23;19982;-72
2022/05/26 15:07:39;;;;;;;;;;;17.70;99.90;;;;;;6214474;23;20266;-75
2022/05/26 15:10:06;;;;;;;;;;;17.70;99.90;;;;;;6215086;23;19947;-75
2022/05/26 15:12:31;;;;;;;;;;;17.70;99.90;;;;;;6214587;23;19920;-74
2022/05/26 15:14:57;;;;;;;;;;;17.60;99.90;;;;;;6214703;23;20009;-75